Vent Valable du: 27-01-2020 16:00 Au: 28-01-2020 16:00 Avertissement pour: Vent Niveau: Jaune info button

Retrouvez également nos données météorologiques sur:

UK Metoffice

Weather Underground

AWEKAS

Citizen Weather Observer Program (CWOP)



Rapports METAR à proximité

   
LFOJ - Montargis
Mise à jour: 27-01-2020 22:00
Nuageux  
Nuageux  
   Vent: SSO 37 km/h
Vent: SSO 37 km/h
Température: 8°C
éolien: 3°C
Point de rosée: 6°C
Humidité: 87%
Pression atmosphérique: 1003 hPa
Nuages: Nuageux
Visibilité: More than 10 km
Nébulosité: Peu de nuages 1600 ft,
Nuageux 3500 ft,
Nuageux 14000 ft
LFOJ 272100Z AUTO 21020KT 9999 FEW016 BKN035 OVC140 08/06 Q1003
LFOJ - Orléans
Mise à jour: 27-01-2020 22:00
Nuageux  
Nuageux  
   Vent: SSO 37 km/h
Vent: SSO 37 km/h
Température: 8°C
éolien: 3°C
Point de rosée: 6°C
Humidité: 87%
Pression atmosphérique: 1003 hPa
Nuages: Nuageux
Visibilité: More than 10 km
Nébulosité: Peu de nuages 1600 ft,
Nuageux 3500 ft,
Nuageux 14000 ft
LFOJ 272100Z AUTO 21020KT 9999 FEW016 BKN035 OVC140 08/06 Q1003
LFQB - Sens
Mise à jour: 27-01-2020 22:00
Nuageux  
Nuageux  
   Vent: SSO 40.7 km/h
Vent: SSO 40.7 km/h
Température: 9°C
éolien: 4°C
Point de rosée: 7°C
Humidité: 87%
Pression atmosphérique: 1003 hPa
Nuages: Nuageux
Visibilité: More than 10 km
Nébulosité: Partiellement nuageux 1900 ft,
Nuageux 2600 ft,
Nuageux 4800 ft
LFQB 272100Z AUTO 20022KT 9999 SCT019 BKN026 BKN048 09/07 Q1003
LFQB - Auxerre
Mise à jour: 27-01-2020 22:00
Nuageux  
Nuageux  
   Vent: SSO 40.7 km/h
Vent: SSO 40.7 km/h
Température: 9°C
éolien: 4°C
Point de rosée: 7°C
Humidité: 87%
Pression atmosphérique: 1003 hPa
Nuages: Nuageux
Visibilité: More than 10 km
Nébulosité: Partiellement nuageux 1900 ft,
Nuageux 2600 ft,
Nuageux 4800 ft
LFQB 272100Z AUTO 20022KT 9999 SCT019 BKN026 BKN048 09/07 Q1003
LFPO - Paris
Mise à jour: 27-01-2020 22:00
Nuageux  
Nuageux  
   Vent: SO 27.8 km/h
Vent: SO 27.8 km/h
Température: 9°C
éolien: 6°C
Point de rosée: 6°C
Humidité: 82%
Pression atmosphérique: 1001 hPa
Nuages: Nuageux
Visibilité: More than 10 km
Nébulosité: Nuageux 1600 ft,
Nuageux 2600 ft,
Nuageux 4600 ft
LFPO 272100Z 23015KT 9999 BKN016 BKN026 BKN046 09/06 Q1001 TEMPO 21015G30KT 4000 SHRA BKN015TCU
LFLX - Bourges
Mise à jour: 27-01-2020 22:00
Ciel dégagé  
Ciel dégagé  
   Vent: SSO 29.6 km/h
Vent: SSO 29.6 km/h
Température: 7°C
éolien: 3°C
Point de rosée: 6°C
Humidité: 93%
Pression atmosphérique: 1007 hPa
Visibilité: More than 10 km
Nébulosité: Ciel dégagé
LFLX 272100Z AUTO 20016KT CAVOK 07/06 Q1007 TEMPO 24018G40KT 2500 SHRA BKN008 BKN025CB

Original script by  Saratoga-weather.org Adapted for the template by  Weerstation Leuven